createdAt,value
2023-01-22T00:01:15.664Z,97281.81
2023-01-22T00:03:46.614Z,97280.97
2023-01-22T00:06:15.440Z,97294.36
2023-01-22T00:08:44.825Z,97302.28
2023-01-22T00:11:14.083Z,97306.08
2023-01-22T00:13:43.337Z,97315.92
2023-01-22T00:16:14.407Z,97325.48
2023-01-22T00:18:43.911Z,97331.74
2023-01-22T00:21:13.522Z,97336.09
2023-01-22T00:23:42.864Z,97337.45
2023-01-22T00:26:12.901Z,97341.02
2023-01-22T00:28:46.070Z,97336.63
2023-01-22T00:31:15.605Z,97335.55
2023-01-22T00:33:44.903Z,97337.98
2023-01-22T00:36:17.914Z,97333.63
2023-01-22T00:39:07.586Z,97330.34
2023-01-22T00:41:37.255Z,97336.09
2023-01-22T00:44:06.492Z,97333.34
2023-01-22T00:46:35.765Z,97334.97
2023-01-22T00:49:04.960Z,97332.78
2023-01-22T00:51:34.565Z,97328.95
2023-01-22T00:54:03.789Z,97324.32
2023-01-22T00:56:32.879Z,97322.11
2023-01-22T00:59:02.331Z,97319.92
2023-01-22T01:01:31.621Z,97309.30
2023-01-22T01:04:00.761Z,97311.73
2023-01-22T01:06:30.047Z,97316.11
2023-01-22T01:08:59.752Z,97324.55
2023-01-22T01:11:30.657Z,97317.72
2023-01-22T01:13:59.910Z,97310.63
2023-01-22T01:16:30.688Z,97312.25
2023-01-22T01:19:04.037Z,97320.17
2023-01-22T01:21:33.105Z,97320.42
2023-01-22T01:24:02.300Z,97318.80
2023-01-22T01:26:31.538Z,97321.26
2023-01-22T01:29:00.828Z,97324.24
2023-01-22T01:31:30.235Z,97328.06
2023-01-22T01:34:00.126Z,97319.59
2023-01-22T01:36:47.657Z,97314.67
2023-01-22T01:38:59.924Z,97313.30
2023-01-22T01:41:29.807Z,97315.77
2023-01-22T01:44:13.479Z,97312.48
2023-01-22T01:47:02.180Z,97314.39
2023-01-22T01:49:35.882Z,97308.64
2023-01-22T01:52:05.925Z,97306.73
2023-01-22T01:54:36.785Z,97306.45
2023-01-22T01:57:10.559Z,97303.16
2023-01-22T01:59:40.207Z,97305.88
2023-01-22T02:02:09.830Z,97302.63
2023-01-22T02:04:39.025Z,97299.88
2023-01-22T02:07:08.263Z,97297.16
2023-01-22T02:09:37.798Z,97296.34
2023-01-22T02:12:07.653Z,97293.86
2023-01-22T02:14:37.233Z,97294.97
2023-01-22T02:17:12.095Z,97290.53
2023-01-22T02:19:41.467Z,97293.26
2023-01-22T02:22:14.672Z,97288.09
2023-01-22T02:27:44.816Z,97292.16
2023-01-22T02:30:14.372Z,97304.42
2023-01-22T02:32:44.081Z,97304.42
2023-01-22T02:35:13.396Z,97301.14
2023-01-22T02:37:42.783Z,97309.89
2023-01-22T02:40:12.727Z,97302.27
2023-01-22T02:42:42.935Z,97315.63
2023-01-22T02:45:12.298Z,97305.28
2023-01-22T02:47:41.492Z,97311.59
2023-01-22T02:50:11.472Z,97313.52
2023-01-22T02:52:40.730Z,97324.44
2023-01-22T02:55:10.175Z,97325.82
2023-01-22T02:57:39.388Z,97322.27
2023-01-22T03:00:09.125Z,97317.12
2023-01-22T03:02:38.307Z,97337.04
2023-01-22T03:05:08.045Z,97339.23
2023-01-22T03:07:43.497Z,97341.97
2023-01-22T03:10:19.609Z,97344.72
2023-01-22T03:13:06.582Z,97353.99
2023-01-22T03:15:53.134Z,97354.01
2023-01-22T03:18:39.973Z,97355.13
2023-01-22T03:21:18.227Z,97366.33
2023-01-22T03:23:51.168Z,97372.34
2023-01-22T03:26:20.764Z,97378.90
2023-01-22T03:28:50.154Z,97375.66
2023-01-22T03:31:19.570Z,97379.22
2023-01-22T03:33:48.976Z,97381.95
2023-01-22T03:36:18.375Z,97388.51
2023-01-22T03:38:47.632Z,97389.63
2023-01-22T03:41:17.076Z,97388.53
2023-01-22T03:43:46.531Z,97392.38
2023-01-22T03:46:17.567Z,97388.05
2023-01-22T03:48:47.028Z,97389.42
2023-01-22T03:51:17.346Z,97395.16
2023-01-22T03:53:46.651Z,97395.45
2023-01-22T03:56:16.453Z,97398.20
2023-01-22T03:58:45.706Z,97406.11
2023-01-22T04:01:16.325Z,97410.77
2023-01-22T04:03:45.622Z,97405.87
2023-01-22T04:06:14.965Z,97399.30
2023-01-22T04:08:44.338Z,97406.94
2023-01-22T04:11:13.566Z,97400.10
2023-01-22T04:13:43.062Z,97400.09
2023-01-22T04:16:12.422Z,97397.65
2023-01-22T04:18:42.140Z,97403.66
2023-01-22T04:21:11.382Z,97405.28
2023-01-22T04:23:40.599Z,97402.80
2023-01-22T04:26:09.843Z,97407.19
2023-01-22T04:28:41.916Z,97406.08
2023-01-22T04:31:11.152Z,97415.92
2023-01-22T04:33:40.463Z,97416.47
2023-01-22T04:36:10.841Z,97423.28
2023-01-22T04:38:40.104Z,97427.63
2023-01-22T04:41:09.300Z,97425.13
2023-01-22T04:43:38.650Z,97435.78
2023-01-22T04:46:08.092Z,97432.48
2023-01-22T04:48:37.213Z,97433.33
2023-01-22T04:51:06.639Z,97439.30
2023-01-22T04:53:35.873Z,97439.28
2023-01-22T04:56:05.146Z,97442.30
2023-01-22T04:58:34.750Z,97437.64
2023-01-22T05:01:03.943Z,97438.74
2023-01-22T05:03:33.364Z,97441.45
2023-01-22T05:06:05.816Z,97433.82
2023-01-22T05:08:35.211Z,97435.98
2023-01-22T05:11:04.458Z,97432.14
2023-01-22T05:13:33.843Z,97428.88
2023-01-22T05:16:03.134Z,97427.22
2023-01-22T05:18:32.367Z,97419.56
2023-01-22T05:21:01.595Z,97424.46
2023-01-22T05:23:30.753Z,97417.37
2023-01-22T05:26:00.490Z,97411.35
2023-01-22T05:28:30.495Z,97409.16
2023-01-22T05:31:00.351Z,97408.05
2023-01-22T05:33:31.762Z,97411.88
2023-01-22T05:36:01.882Z,97413.22
2023-01-22T05:38:31.346Z,97417.05
2023-01-22T05:41:00.822Z,97410.21
2023-01-22T05:43:30.919Z,97408.55
2023-01-22T05:46:03.510Z,97415.09
2023-01-22T05:48:33.819Z,97413.45
2023-01-22T05:51:09.139Z,97413.16
2023-01-22T05:53:38.480Z,97414.50
2023-01-22T05:56:08.108Z,97414.78
2023-01-22T05:58:37.384Z,97403.59
2023-01-22T06:01:06.611Z,97403.03
2023-01-22T06:03:35.862Z,97395.64
2023-01-22T06:06:06.045Z,97394.53
2023-01-22T06:08:35.315Z,97405.72
2023-01-22T06:11:04.885Z,97404.59
2023-01-22T06:13:34.027Z,97400.23
2023-01-22T06:16:03.260Z,97396.94
2023-01-22T06:18:32.588Z,97403.19
2023-01-22T06:21:02.273Z,97398.53
2023-01-22T06:23:31.563Z,97399.59
2023-01-22T06:26:01.059Z,97389.22
2023-01-22T06:28:30.471Z,97386.77
2023-01-22T06:31:02.797Z,97383.21
2023-01-22T06:33:32.073Z,97382.09
2023-01-22T06:36:04.044Z,97392.44
2023-01-22T06:38:34.090Z,97396.80
2023-01-22T06:41:03.254Z,97386.70
2023-01-22T06:43:32.782Z,97384.22
2023-01-22T06:46:02.093Z,97379.59
2023-01-22T06:48:31.254Z,97381.20
2023-01-22T06:51:00.972Z,97377.09
2023-01-22T06:53:30.186Z,97380.61
2023-01-22T06:56:02.472Z,97378.17
2023-01-22T06:58:31.858Z,97372.70
2023-01-22T07:01:04.205Z,97372.40
2023-01-22T07:03:33.489Z,97374.28
2023-01-22T07:06:03.385Z,97365.58
2023-01-22T07:08:33.072Z,97375.36
2023-01-22T07:11:02.392Z,97372.61
2023-01-22T07:13:31.563Z,97373.41
2023-01-22T07:16:02.062Z,97378.59
2023-01-22T07:18:31.369Z,97374.48
2023-01-22T07:21:04.172Z,97377.18
2023-01-22T07:23:33.394Z,97376.61
2023-01-22T07:26:02.797Z,97377.95
2023-01-22T07:28:32.023Z,97375.50
2023-01-22T07:31:01.775Z,97374.94
2023-01-22T07:33:31.024Z,97374.91
2023-01-22T07:36:00.329Z,97386.36
2023-01-22T07:38:29.783Z,97387.70
2023-01-22T07:41:07.204Z,97386.28
2023-01-22T07:43:34.503Z,97383.84
2023-01-22T07:46:07.106Z,97385.98
2023-01-22T07:48:36.414Z,97387.30
2023-01-22T07:51:06.740Z,97386.17
2023-01-22T07:53:36.151Z,97386.45
2023-01-22T07:56:06.523Z,97392.14
2023-01-22T07:58:35.754Z,97391.84
2023-01-22T08:01:08.477Z,97393.73
2023-01-22T08:03:38.876Z,97399.69
2023-01-22T08:06:11.177Z,97397.24
2023-01-22T08:08:40.457Z,97398.81
2023-01-22T08:11:09.675Z,97403.99
2023-01-22T08:13:38.932Z,97410.80
2023-01-22T08:16:09.774Z,97412.41
2023-01-22T08:18:38.996Z,97415.38
2023-01-22T08:21:08.533Z,97416.46
2023-01-22T08:23:37.700Z,97418.06
2023-01-22T08:26:06.996Z,97413.41
2023-01-22T08:28:36.244Z,97421.84
2023-01-22T08:31:07.802Z,97414.47
2023-01-22T08:33:36.052Z,97419.64
2023-01-22T08:36:05.529Z,97414.68
2023-01-22T08:38:34.735Z,97413.05
2023-01-22T08:41:04.297Z,97409.75
2023-01-22T08:43:33.583Z,97412.98
2023-01-22T08:46:02.891Z,97414.08
2023-01-22T08:48:32.081Z,97410.23
2023-01-22T08:51:04.691Z,97403.70
2023-01-22T08:53:34.316Z,97411.02
2023-01-22T08:56:03.394Z,97406.36
2023-01-22T08:58:32.686Z,97407.69
2023-01-22T09:01:02.268Z,97408.23
2023-01-22T09:03:31.793Z,97411.20
2023-01-22T09:06:01.534Z,97417.19
2023-01-22T09:08:30.970Z,97406.81
2023-01-22T09:11:00.865Z,97416.84
2023-01-22T09:13:30.171Z,97412.19
2023-01-22T09:15:59.369Z,97413.27
2023-01-22T09:18:29.071Z,97418.41
2023-01-22T09:21:00.455Z,97419.20
2023-01-22T09:23:30.062Z,97414.56
2023-01-22T09:26:00.109Z,97426.51
2023-01-22T09:28:30.165Z,97424.30
2023-01-22T09:30:59.459Z,97428.61
2023-01-22T09:33:29.248Z,97430.22
2023-01-22T09:36:00.649Z,97425.28
2023-01-22T09:38:30.272Z,97425.28
2023-01-22T09:41:00.278Z,97414.94
2023-01-22T09:45:59.534Z,97407.09
2023-01-22T09:48:30.574Z,97404.70
2023-01-22T09:51:00.273Z,97405.83
2023-01-22T09:53:30.106Z,97405.31
2023-01-22T09:56:00.420Z,97404.53
2023-01-22T09:58:30.215Z,97408.89
2023-01-22T10:01:03.157Z,97406.17
2023-01-22T10:03:33.817Z,97403.45
2023-01-22T10:06:04.354Z,97404.84
2023-01-22T10:08:34.611Z,97404.56
2023-01-22T10:11:04.720Z,97406.47
2023-01-22T10:13:37.169Z,97404.81
2023-01-22T10:16:06.438Z,97407.53
2023-01-22T10:18:54.240Z,97405.35
2023-01-22T10:21:27.711Z,97410.52
2023-01-22T10:23:58.951Z,97403.41
2023-01-22T10:26:40.979Z,97411.30
2023-01-22T10:29:11.282Z,97413.20
2023-01-22T10:31:44.927Z,97415.63
2023-01-22T10:34:18.452Z,97413.69
2023-01-22T10:36:54.327Z,97418.07
2023-01-22T10:39:23.769Z,97410.15
2023-01-22T10:41:53.047Z,97412.05
2023-01-22T10:44:23.898Z,97419.09
2023-01-22T10:46:53.639Z,97422.33
2023-01-22T10:49:23.726Z,97414.12
2023-01-22T10:51:57.041Z,97417.13
2023-01-22T10:54:27.677Z,97420.38
2023-01-22T10:56:58.955Z,97420.08
2023-01-22T10:59:29.352Z,97423.07
2023-01-22T11:02:00.175Z,97425.21
2023-01-22T11:04:30.924Z,97421.91
2023-01-22T11:07:04.244Z,97416.74
2023-01-22T11:09:51.123Z,97424.36
2023-01-22T11:12:21.703Z,97418.88
2023-01-22T11:14:52.427Z,97428.95
2023-01-22T11:17:27.848Z,97429.48
2023-01-22T11:19:59.306Z,97427.83
2023-01-22T11:22:36.069Z,97432.69
2023-01-22T11:25:07.406Z,97431.28
2023-01-22T11:27:37.320Z,97431.86
2023-01-22T11:30:24.387Z,97434.86
2023-01-22T11:32:58.199Z,97449.23
2023-01-22T11:35:38.148Z,97446.75
2023-01-22T11:38:08.819Z,97449.20
2023-01-22T11:40:39.143Z,97448.07
2023-01-22T11:43:09.815Z,97449.16
2023-01-22T11:45:53.709Z,97455.14
2023-01-22T11:48:36.166Z,97459.45
2023-01-22T11:51:15.819Z,97452.61
2023-01-22T11:53:46.361Z,97465.67
2023-01-22T11:56:23.181Z,97469.23
2023-01-22T11:58:53.723Z,97478.80
2023-01-22T12:01:30.484Z,97485.63
2023-01-22T12:04:05.116Z,97490.84
2023-01-22T12:06:38.772Z,97485.77
2023-01-22T12:09:21.661Z,97494.04
2023-01-22T12:12:01.167Z,97496.02
2023-01-22T12:14:47.980Z,97503.23
2023-01-22T12:17:18.611Z,97501.41
2023-01-22T12:19:49.572Z,97511.86
2023-01-22T12:22:35.174Z,97503.77
2023-01-22T12:25:06.475Z,97504.69
2023-01-22T12:27:40.058Z,97507.48
2023-01-22T12:30:11.233Z,97518.68
2023-01-22T12:32:40.831Z,97516.56
2023-01-22T12:35:11.564Z,97525.89
2023-01-22T12:37:54.544Z,97530.63
2023-01-22T12:40:25.329Z,97523.09
2023-01-22T12:42:55.991Z,97524.25
2023-01-22T12:45:26.549Z,97524.86
2023-01-22T12:48:15.185Z,97524.95
2023-01-22T12:50:51.312Z,97527.70
2023-01-22T12:53:21.957Z,97543.30
2023-01-22T12:56:04.474Z,97534.94
2023-01-22T12:58:34.637Z,97533.63
2023-01-22T13:01:11.116Z,97536.11
2023-01-22T13:03:40.879Z,97535.89
2023-01-22T13:06:23.406Z,97529.92
2023-01-22T13:08:52.593Z,97537.58
2023-01-22T13:11:35.195Z,97535.73
2023-01-22T13:14:15.230Z,97540.14
2023-01-22T13:16:42.587Z,97547.01
2023-01-22T13:19:16.489Z,97548.42
2023-01-22T13:21:45.820Z,97554.72
2023-01-22T13:24:19.244Z,97555.56
2023-01-22T13:26:58.329Z,97558.06
2023-01-22T13:29:33.632Z,97564.09
2023-01-22T13:32:03.589Z,97562.48
2023-01-22T13:34:33.156Z,97569.35
2023-01-22T13:37:02.445Z,97557.39
2023-01-22T13:39:32.512Z,97563.44
2023-01-22T13:42:02.751Z,97564.85
2023-01-22T13:44:36.079Z,97562.96
2023-01-22T13:47:05.377Z,97564.07
2023-01-22T13:49:35.167Z,97562.21
2023-01-22T13:52:05.366Z,97560.32
2023-01-22T13:54:36.245Z,97566.61
2023-01-22T13:57:06.412Z,97571.00
2023-01-22T13:59:39.355Z,97570.49
2023-01-22T14:02:15.866Z,97572.17
2023-01-22T14:04:45.207Z,97571.64
2023-01-22T14:07:17.211Z,97570.57
2023-01-22T14:09:46.515Z,97572.22
2023-01-22T14:12:17.258Z,97576.33
2023-01-22T14:14:46.528Z,97578.53
2023-01-22T14:17:29.573Z,97580.47
2023-01-22T14:20:01.871Z,97581.08
2023-01-22T14:22:31.275Z,97580.55
2023-01-22T14:25:01.057Z,97586.30
2023-01-22T14:27:32.140Z,97588.48
2023-01-22T14:30:02.132Z,97590.43
2023-01-22T14:32:32.637Z,97599.19
2023-01-22T14:35:02.783Z,97604.12
2023-01-22T14:37:32.164Z,97605.23
2023-01-22T14:40:01.922Z,97609.06
2023-01-22T14:42:31.713Z,97609.88
2023-01-22T14:45:01.985Z,97614.56
2023-01-22T14:47:31.757Z,97617.58
2023-01-22T14:50:01.687Z,97614.31
2023-01-22T14:52:30.946Z,97624.44
2023-01-22T14:55:00.896Z,97634.31
2023-01-22T14:57:30.915Z,97634.84
2023-01-22T15:00:00.950Z,97641.14
2023-01-22T15:02:30.306Z,97640.89
2023-01-22T15:05:00.173Z,97644.76
2023-01-22T15:07:30.034Z,97638.73
2023-01-22T15:10:00.044Z,97646.36
2023-01-22T15:12:30.070Z,97649.33
2023-01-22T15:15:00.024Z,97658.36
2023-01-22T15:17:29.948Z,97655.33
2023-01-22T15:20:00.099Z,97660.25
2023-01-22T15:22:30.026Z,97657.75
2023-01-22T15:24:59.960Z,97667.58
2023-01-22T15:27:30.132Z,97664.02
2023-01-22T15:30:00.103Z,97666.48
2023-01-22T15:32:30.069Z,97674.92
2023-01-22T15:35:00.151Z,97674.39
2023-01-22T15:37:30.015Z,97681.20
2023-01-22T15:39:59.979Z,97681.73
2023-01-22T15:42:30.062Z,97687.46
2023-01-22T15:44:59.979Z,97689.36
2023-01-22T15:47:30.217Z,97692.63
2023-01-22T15:50:00.444Z,97698.34
2023-01-22T15:52:30.124Z,97703.78
2023-01-22T15:55:00.422Z,97707.86
2023-01-22T15:57:30.185Z,97704.02
2023-01-22T16:00:00.199Z,97717.70
2023-01-22T16:02:30.192Z,97710.84
2023-01-22T16:05:00.192Z,97714.64
2023-01-22T16:07:30.131Z,97716.53
2023-01-22T16:10:00.156Z,97718.18
2023-01-22T16:12:31.255Z,97712.66
2023-01-22T16:15:00.479Z,97715.62
2023-01-22T16:17:30.169Z,97727.91
2023-01-22T16:20:00.332Z,97722.72
2023-01-22T16:22:30.159Z,97725.67
2023-01-22T16:25:00.074Z,97729.74
2023-01-22T16:27:30.178Z,97731.41
2023-01-22T16:30:00.178Z,97731.95
2023-01-22T16:32:30.234Z,97725.67
2023-01-22T16:35:00.295Z,97727.06
2023-01-22T16:37:30.179Z,97726.52
2023-01-22T16:40:00.134Z,97723.23
2023-01-22T16:42:30.461Z,97725.47
2023-01-22T16:45:00.304Z,97727.19
2023-01-22T16:47:30.239Z,97727.19
2023-01-22T16:50:00.347Z,97723.94
2023-01-22T16:52:30.193Z,97728.87
2023-01-22T16:55:00.429Z,97728.32
2023-01-22T16:57:30.299Z,97730.28
2023-01-22T17:00:00.372Z,97734.95
2023-01-22T17:02:30.231Z,97735.48
2023-01-22T17:05:00.360Z,97742.63
2023-01-22T17:07:33.990Z,97746.20
2023-01-22T17:10:01.225Z,97738.03
2023-01-22T17:12:31.247Z,97738.60
2023-01-22T17:15:01.235Z,97745.72
2023-01-22T17:17:32.819Z,97739.16
2023-01-22T17:20:02.170Z,97747.95
2023-01-22T17:22:33.471Z,97747.70
2023-01-22T17:25:02.699Z,97746.88
2023-01-22T17:27:33.549Z,97743.91
2023-01-22T17:30:02.919Z,97745.55
2023-01-22T17:32:32.210Z,97748.86
2023-01-22T17:35:02.262Z,97743.67
2023-01-22T17:37:31.561Z,97741.50
2023-01-22T17:40:01.120Z,97739.34
2023-01-22T17:42:31.567Z,97731.16
2023-01-22T17:45:01.216Z,97727.08
2023-01-22T17:47:31.234Z,97723.81
2023-01-22T17:50:00.583Z,97715.88
2023-01-22T17:52:30.248Z,97711.80
2023-01-22T17:55:00.907Z,97706.31
2023-01-22T17:57:31.345Z,97701.38
2023-01-22T18:00:01.191Z,97696.70
2023-01-22T18:02:31.348Z,97700.26
2023-01-22T18:05:01.615Z,97692.31
2023-01-22T18:07:31.399Z,97688.77
2023-01-22T18:10:01.195Z,97680.55
2023-01-22T18:12:31.354Z,97677.25
2023-01-22T18:15:01.300Z,97681.63
2023-01-22T18:17:31.317Z,97676.97
2023-01-22T18:20:01.359Z,97672.84
2023-01-22T18:22:31.541Z,97672.83
2023-01-22T18:25:01.376Z,97666.25
2023-01-22T18:27:31.697Z,97667.35
2023-01-22T18:30:01.296Z,97663.23
2023-01-22T18:32:31.635Z,97660.75
2023-01-22T18:35:01.470Z,97657.75
2023-01-22T18:37:32.666Z,97650.09
2023-01-22T18:40:02.319Z,97651.70
2023-01-22T18:42:32.348Z,97653.35
2023-01-22T18:45:02.210Z,97648.69
2023-01-22T18:47:33.676Z,97646.48
2023-01-22T18:50:02.965Z,97643.19
2023-01-22T18:52:32.286Z,97648.66
2023-01-22T18:55:02.309Z,97640.72
2023-01-22T18:57:35.066Z,97638.23
2023-01-22T19:00:04.732Z,97637.42
2023-01-22T19:02:33.889Z,97639.59
2023-01-22T19:05:03.197Z,97645.33
2023-01-22T19:07:33.889Z,97636.57
2023-01-22T19:10:04.155Z,97632.72
2023-01-22T19:12:33.696Z,97628.61
2023-01-22T19:15:23.633Z,97633.80
2023-01-22T19:17:52.941Z,97632.41
2023-01-22T19:20:22.370Z,97633.48
2023-01-22T19:22:51.605Z,97632.91
2023-01-22T19:25:21.316Z,97626.61
2023-01-22T19:27:50.990Z,97639.45
2023-01-22T19:30:20.394Z,97633.44
2023-01-22T19:32:49.593Z,97631.80
2023-01-22T19:35:19.043Z,97632.91
2023-01-22T19:37:48.410Z,97629.69
2023-01-22T19:40:17.614Z,97634.34
2023-01-22T19:42:47.781Z,97628.91
2023-01-22T19:45:17.242Z,97629.98
2023-01-22T19:47:46.598Z,97619.09
2023-01-22T19:50:15.972Z,97624.30
2023-01-22T19:52:45.168Z,97630.86
2023-01-22T19:55:14.374Z,97629.80
2023-01-22T19:57:43.718Z,97633.36
2023-01-22T20:00:13.762Z,97630.34
2023-01-22T20:02:44.369Z,97636.68
2023-01-22T20:05:15.005Z,97634.78
2023-01-22T20:07:45.536Z,97633.44
2023-01-22T20:10:16.352Z,97638.06
2023-01-22T20:12:45.726Z,97641.92
2023-01-22T20:15:16.487Z,97647.11
2023-01-22T20:17:45.632Z,97643.88
2023-01-22T20:20:15.041Z,97639.52
2023-01-22T20:22:44.327Z,97636.80
2023-01-22T20:25:13.509Z,97638.99
2023-01-22T20:27:44.873Z,97636.80
2023-01-22T20:30:14.209Z,97635.41
2023-01-22T20:32:43.475Z,97635.39
2023-01-22T20:35:14.259Z,97644.39
2023-01-22T20:37:43.619Z,97643.86
2023-01-22T20:40:13.108Z,97646.03
2023-01-22T20:42:42.460Z,97653.92
2023-01-22T20:45:11.861Z,97659.12
2023-01-22T20:47:40.984Z,97659.92
2023-01-22T20:50:10.681Z,97665.66
2023-01-22T20:52:39.771Z,97667.58
2023-01-22T20:55:10.907Z,97667.02
2023-01-22T20:57:40.320Z,97666.71
2023-01-22T21:00:09.941Z,97665.34
2023-01-22T21:02:39.039Z,97666.17
2023-01-22T21:05:08.438Z,97674.62
2023-01-22T21:07:37.519Z,97672.44
2023-01-22T21:10:07.676Z,97673.53
2023-01-22T21:12:37.035Z,97673.23
2023-01-22T21:15:06.629Z,97674.88
2023-01-22T21:17:35.875Z,97682.23
2023-01-22T21:20:07.149Z,97690.15
2023-01-22T21:22:36.852Z,97691.25
2023-01-22T21:25:06.217Z,97690.95
2023-01-22T21:27:35.591Z,97699.98
2023-01-22T21:30:05.360Z,97706.52
2023-01-22T21:32:34.632Z,97708.16
2023-01-22T21:35:03.934Z,97710.59
2023-01-22T21:37:35.876Z,97717.15
2023-01-22T21:40:05.117Z,97716.84
2023-01-22T21:42:51.762Z,97718.22
2023-01-22T21:45:38.471Z,97716.03
2023-01-22T21:48:07.786Z,97715.46
2023-01-22T21:50:38.474Z,97717.10
2023-01-22T21:53:07.722Z,97720.94
2023-01-22T21:55:37.421Z,97724.73
2023-01-22T21:58:08.658Z,97726.91
2023-01-22T22:00:37.370Z,97729.41
2023-01-22T22:03:06.680Z,97725.36
2023-01-22T22:05:36.147Z,97724.02
2023-01-22T22:08:05.320Z,97730.59
2023-01-22T22:10:34.385Z,97724.09
2023-01-22T22:13:03.571Z,97728.47
2023-01-22T22:15:32.733Z,97727.39
2023-01-22T22:18:02.545Z,97729.05
2023-01-22T22:20:33.896Z,97729.92
2023-01-22T22:23:03.432Z,97735.94
2023-01-22T22:25:33.770Z,97735.41
2023-01-22T22:28:03.573Z,97735.73
2023-01-22T22:30:33.370Z,97741.48
2023-01-22T22:33:03.423Z,97743.44
2023-01-22T22:35:33.945Z,97745.09
2023-01-22T22:38:03.838Z,97742.64
2023-01-22T22:40:33.780Z,97746.73
2023-01-22T22:43:03.576Z,97752.45
2023-01-22T22:45:35.618Z,97757.10
2023-01-22T22:48:04.791Z,97766.67
2023-01-22T22:50:34.038Z,97763.64
2023-01-22T22:53:03.444Z,97771.83
2023-01-22T22:55:32.913Z,97775.39
2023-01-22T22:58:04.958Z,97774.84
2023-01-22T23:00:34.135Z,97777.01
2023-01-22T23:03:03.642Z,97779.74
2023-01-22T23:05:34.954Z,97775.92
2023-01-22T23:08:04.221Z,97776.98
2023-01-22T23:10:33.547Z,97782.76
2023-01-22T23:13:03.965Z,97775.92
2023-01-22T23:15:33.569Z,97783.82
2023-01-22T23:18:03.518Z,97787.34
2023-01-22T23:20:33.737Z,97793.09
2023-01-22T23:23:03.619Z,97793.64
2023-01-22T23:25:36.409Z,97788.97
2023-01-22T23:28:05.845Z,97796.08
2023-01-22T23:30:36.483Z,97798.23
2023-01-22T23:33:05.784Z,97800.43
2023-01-22T23:35:35.072Z,97805.08
2023-01-22T23:38:04.290Z,97811.06
2023-01-22T23:40:34.664Z,97814.07
2023-01-22T23:43:04.129Z,97811.31
2023-01-22T23:45:33.726Z,97818.39
2023-01-22T23:48:03.656Z,97817.00
2023-01-22T23:50:33.950Z,97820.01
2023-01-22T23:53:03.682Z,97819.98
2023-01-22T23:55:33.668Z,97820.78
2023-01-22T23:58:03.690Z,97829.80
